Terminal Aerodrome Forecast
Issued by NWS Chicago, IL

Home | Current Version | Previous Version | Text Only | Print | Product List | Glossary Off
Versions: 1 2 3 4 5 6 7 8 9 10 11 12 13 14 15 16 17 18 19 20 21 22 23 24 25 26

000
FTUS43 KLOT 272320
TAFRFD
TAF
KRFD 272320Z 2800/2824 VRB03KT P6SM SCT040 BKN250
     FM280600 00000KT 4SM BR BCFG SCT003 SCT250
     FM280900 00000KT 1SM BR BCFG BKN003
      TEMPO 2809/2813 1/2SM FG VV002
     FM281500 14005KT P6SM SCT025 BKN250=

USA.gov is the U.S. government's official web portal to all federal, state and local government web resources and services.